Time;durP1;ratioP1;P1;durP2;ratioP2;P2;SDS_P1;SDS_P2;PMS_P1;PMS_P2;Temp;Humidity;BMP_temperature;BMP_pressure;BME280_temperature;BME280_humidity;BME280_pressure;Samples;Min_cycle;Max_cycle;Signal;HPM_P1;HPM_P2
2023/05/01 00:01:31;;;;;;;11.07;5.38;;;;;;;9.34;100.00;-18279.44;4998309;28;20413;-80
2023/05/01 00:03:57;;;;;;;12.68;5.55;;;;;;;9.37;100.00;-18280.38;5005102;28;20511;-79
2023/05/01 00:06:22;;;;;;;9.13;5.20;;;;;;;9.33;100.00;-18279.28;5005726;28;20042;-80
2023/05/01 00:08:47;;;;;;;8.55;5.15;;;;;;;9.40;100.00;-18281.06;4999304;28;20174;-80
2023/05/01 00:11:13;;;;;;;12.35;5.38;;;;;;;9.31;100.00;-18278.75;5019484;28;20049;-80
2023/05/01 00:13:38;;;;;;;12.35;5.40;;;;;;;9.29;100.00;-18278.19;5003937;28;20494;-80
2023/05/01 00:16:11;;;;;;;10.00;5.10;;;;;;;9.13;100.00;-18273.78;5005571;28;20796;-80
2023/05/01 00:18:37;;;;;;;7.53;5.10;;;;;;;9.19;100.00;-18275.56;5001304;28;20057;-80
2023/05/01 00:21:03;;;;;;;10.88;5.60;;;;;;;9.13;100.00;-18273.78;5004578;28;20046;-80
2023/05/01 00:23:28;;;;;;;10.32;5.60;;;;;;;9.02;100.00;-18271.03;4996528;28;20081;-80
2023/05/01 00:25:53;;;;;;;10.90;5.72;;;;;;;9.00;100.00;-18270.34;5002658;28;20042;-79
2023/05/01 00:28:19;;;;;;;9.07;5.45;;;;;;;9.02;100.00;-18271.03;5001686;28;20042;-80
2023/05/01 00:30:45;;;;;;;8.00;5.28;;;;;;;9.02;100.00;-18271.03;5000549;28;20046;-80
2023/05/01 00:33:11;;;;;;;16.30;10.77;;;;;;;8.93;100.00;-18268.41;5005880;28;20500;-79
2023/05/01 00:35:36;;;;;;;9.20;5.50;;;;;;;8.91;100.00;-18267.88;5003591;28;20088;-79
2023/05/01 00:38:02;;;;;;;12.25;7.55;;;;;;;8.92;100.00;-18268.16;5000185;28;20042;-79
2023/05/01 00:40:27;;;;;;;10.85;5.72;;;;;;;8.91;100.00;-18267.88;4992792;28;20046;-79
2023/05/01 00:42:53;;;;;;;8.73;5.47;;;;;;;8.93;100.00;-18268.41;4997953;28;20142;-79
2023/05/01 00:45:19;;;;;;;11.10;5.50;;;;;;;8.86;100.00;-18266.50;5000316;28;20447;-79
2023/05/01 00:47:45;;;;;;;9.65;5.30;;;;;;;8.89;100.00;-18267.31;5000030;28;20053;-79
2023/05/01 00:50:12;;;;;;;10.50;5.65;;;;;;;8.88;100.00;-18267.03;4997749;28;20046;-79
2023/05/01 00:52:38;;;;;;;10.15;5.55;;;;;;;8.88;100.00;-18267.03;4995831;28;20069;-79
2023/05/01 00:55:04;;;;;;;11.18;5.57;;;;;;;8.86;100.00;-18266.50;5004815;28;20049;-79
2023/05/01 00:57:31;;;;;;;9.48;5.35;;;;;;;8.79;100.00;-18264.84;5001420;28;20042;-80
2023/05/01 00:59:56;;;;;;;9.77;5.38;;;;;;;8.77;100.00;-18264.16;5011027;28;20034;-80
2023/05/01 01:02:22;;;;;;;10.82;5.60;;;;;;;8.75;100.00;-18263.75;5015457;28;20104;-80
2023/05/01 01:04:48;;;;;;;7.82;5.38;;;;;;;8.73;100.00;-18263.19;5012176;28;20042;-80
2023/05/01 01:07:40;;;;;;;9.63;5.68;;;;;;;8.71;100.00;-18262.50;5007039;28;20872;-80
2023/05/01 01:10:05;;;;;;;8.80;5.85;;;;;;;8.65;100.00;-18261.00;5002487;28;20080;-80
2023/05/01 01:13:00;;;;;;;9.00;5.90;;;;;;;8.69;100.00;-18261.94;5008260;28;20049;-80
2023/05/01 01:15:34;;;;;;;14.10;6.25;;;;;;;8.70;100.00;-18262.38;5003321;28;20041;-79
2023/05/01 01:18:17;;;;;;;9.90;5.93;;;;;;;8.73;100.00;-18263.19;5010481;28;20107;-79
2023/05/01 01:20:53;;;;;;;10.07;5.70;;;;;;;8.65;100.00;-18261.00;4994729;28;20089;-79
2023/05/01 01:23:27;;;;;;;10.35;5.93;;;;;;;8.59;100.00;-18259.34;5007678;28;20190;-79
2023/05/01 01:26:21;;;;;;;14.50;6.00;;;;;;;8.61;100.00;-18259.88;5010965;28;20142;-79
2023/05/01 01:29:03;;;;;;;10.98;5.78;;;;;;;8.57;100.00;-18258.94;5003840;28;20046;-80
2023/05/01 01:31:39;;;;;;;13.32;6.35;;;;;;;8.59;100.00;-18259.34;5008601;28;20046;-79
2023/05/01 01:34:19;;;;;;;11.10;6.22;;;;;;;8.57;100.00;-18258.78;5020704;28;20041;-79
2023/05/01 01:36:55;;;;;;;9.98;6.15;;;;;;;8.59;100.00;-18259.34;4994736;28;20050;-80
2023/05/01 01:39:29;;;;;;;10.77;6.32;;;;;;;8.55;100.00;-18258.25;5004614;28;20034;-79
2023/05/01 01:41:57;;;;;;;11.35;6.10;;;;;;;8.46;100.00;-18255.91;5007849;28;20721;-79
2023/05/01 01:44:46;;;;;;;10.30;6.03;;;;;;;8.44;100.00;-18255.34;5012716;28;20517;-80
2023/05/01 01:47:14;;;;;;;11.02;6.35;;;;;;;8.44;100.00;-18255.34;5011078;28;20066;-79
2023/05/01 01:49:45;;;;;;;10.55;6.82;;;;;;;8.35;100.00;-18253.00;5002248;28;20153;-79
2023/05/01 01:52:14;;;;;;;10.77;7.00;;;;;;;8.39;100.00;-18253.84;5009338;28;20068;-79
2023/05/01 01:54:53;;;;;;;10.93;6.70;;;;;;;8.36;100.00;-18253.13;5006110;28;20103;-79
2023/05/01 01:57:22;;;;;;;13.13;6.30;;;;;;;8.40;100.00;-18254.09;5002584;28;20420;-79
2023/05/01 01:59:50;;;;;;;11.90;7.25;;;;;;;8.34;100.00;-18252.59;4998960;28;20563;-79
2023/05/01 02:02:18;;;;;;;9.45;6.50;;;;;;;8.31;100.00;-18251.91;5001312;28;20038;-79
2023/05/01 02:04:47;;;;;;;9.63;6.38;;;;;;;8.32;100.00;-18252.19;5009356;28;20556;-79
2023/05/01 02:07:13;;;;;;;8.30;5.80;;;;;;;8.34;100.00;-18252.59;5005889;28;20046;-79
2023/05/01 02:09:41;;;;;;;9.25;6.28;;;;;;;8.29;100.00;-18251.34;5011646;28;20057;-79
2023/05/01 02:12:07;;;;;;;11.00;6.35;;;;;;;8.32;100.00;-18252.19;5008116;28;20113;-79
2023/05/01 02:14:34;;;;;;;10.30;6.57;;;;;;;8.33;100.00;-18252.31;5009464;28;20049;-79
2023/05/01 02:17:01;;;;;;;11.30;6.82;;;;;;;8.40;100.00;-18254.09;5009779;28;20037;-79
2023/05/01 02:19:27;;;;;;;12.13;7.07;;;;;;;8.32;100.00;-18252.19;5006058;28;20041;-79
2023/05/01 02:21:56;;;;;;;11.27;6.47;;;;;;;8.37;100.00;-18253.41;5011978;28;20046;-79
2023/05/01 02:24:23;;;;;;;10.73;6.60;;;;;;;8.34;100.00;-18252.72;5006599;28;20038;-79
2023/05/01 02:27:05;;;;;;;10.35;6.60;;;;;;;8.35;100.00;-18253.00;5012531;28;20101;-79
2023/05/01 02:29:30;;;;;;;11.25;6.60;;;;;;;8.26;100.00;-18250.38;5008237;28;20041;-79
2023/05/01 02:31:56;;;;;;;13.13;7.07;;;;;;;8.32;100.00;-18252.19;5008459;28;20142;-79
2023/05/01 02:34:21;;;;;;;10.27;6.65;;;;;;;8.29;100.00;-18251.22;5013557;28;20057;-79
2023/05/01 02:36:46;;;;;;;9.40;6.22;;;;;;;8.27;100.00;-18250.78;5013414;28;20099;-79
2023/05/01 02:39:12;;;;;;;13.93;7.13;;;;;;;8.22;100.00;-18249.41;5007880;28;20077;-79
2023/05/01 02:41:38;;;;;;;11.05;6.65;;;;;;;8.17;100.00;-18248.03;5012886;28;20049;-79
2023/05/01 02:44:08;;;;;;;11.30;6.47;;;;;;;8.14;100.00;-18247.34;5008460;28;20050;-79
2023/05/01 02:46:36;;;;;;;12.57;7.18;;;;;;;8.18;100.00;-18248.31;5013105;28;20145;-79
2023/05/01 02:49:03;;;;;;;13.20;6.53;;;;;;;8.07;100.00;-18245.28;5012435;28;20100;-79
2023/05/01 02:51:30;;;;;;;13.73;6.90;;;;;;;8.10;100.00;-18246.13;5005518;28;20517;-79
2023/05/01 02:53:58;;;;;;;12.15;6.80;;;;;;;8.09;100.00;-18245.84;5009781;28;20065;-79
2023/05/01 02:56:26;;;;;;;13.35;7.22;;;;;;;8.05;100.00;-18244.75;5007004;28;20042;-79
2023/05/01 02:58:52;;;;;;;13.32;7.25;;;;;;;8.10;100.00;-18246.13;5012806;28;20408;-79
2023/05/01 03:01:18;;;;;;;12.70;7.28;;;;;;;8.07;100.00;-18245.44;5006003;28;20042;-79
2023/05/01 03:03:43;;;;;;;11.10;6.65;;;;;;;8.14;100.00;-18247.22;5014706;28;20057;-79
2023/05/01 03:06:09;;;;;;;10.70;6.25;;;;;;;8.19;100.00;-18248.47;5012157;28;20046;-79
2023/05/01 03:08:35;;;;;;;13.90;7.40;;;;;;;8.17;100.00;-18247.91;5010097;28;20054;-79
2023/05/01 03:11:04;;;;;;;10.55;7.07;;;;;;;8.07;100.00;-18245.44;5011215;28;20088;-79
2023/05/01 03:13:29;;;;;;;13.10;6.85;;;;;;;8.16;100.00;-18247.78;5011226;28;20042;-79
2023/05/01 03:15:55;;;;;;;12.95;6.90;;;;;;;8.16;100.00;-18247.78;5009808;28;20084;-79
2023/05/01 03:18:20;;;;;;;13.18;6.82;;;;;;;8.14;100.00;-18247.22;5008818;28;20056;-79
2023/05/01 03:20:58;;;;;;;11.82;7.32;;;;;;;8.13;100.00;-18247.09;5013901;28;20072;-79
2023/05/01 03:23:24;;;;;;;10.20;6.20;;;;;;;8.06;100.00;-18245.03;5010039;28;20060;-79
2023/05/01 03:25:50;;;;;;;11.10;6.75;;;;;;;8.01;100.00;-18243.63;5014437;28;20129;-79
2023/05/01 03:28:15;;;;;;;10.52;6.32;;;;;;;8.00;100.00;-18243.50;5009020;28;20041;-79
2023/05/01 03:30:41;;;;;;;12.38;6.68;;;;;;;7.92;100.00;-18241.31;5010350;28;20076;-79
2023/05/01 03:33:06;;;;;;;11.40;6.93;;;;;;;7.95;100.00;-18242.00;5014396;28;20121;-79
2023/05/01 03:35:32;;;;;;;12.35;7.28;;;;;;;8.03;100.00;-18244.31;5002494;28;20046;-79
2023/05/01 03:37:57;;;;;;;9.75;6.45;;;;;;;7.99;100.00;-18243.09;5008699;28;20394;-79
2023/05/01 03:40:22;;;;;;;11.75;7.00;;;;;;;7.93;100.00;-18241.44;5009192;28;20035;-79
2023/05/01 03:42:48;;;;;;;11.05;7.13;;;;;;;7.93;100.00;-18241.44;5009476;28;20049;-79
2023/05/01 03:45:13;;;;;;;9.52;6.38;;;;;;;7.86;100.00;-18239.78;5014024;28;20061;-79
2023/05/01 03:47:39;;;;;;;10.73;6.93;;;;;;;7.81;100.00;-18238.41;5011919;28;20120;-79
2023/05/01 03:50:04;;;;;;;11.73;7.25;;;;;;;7.76;100.00;-18237.03;5018488;28;20128;-79
2023/05/01 03:52:30;;;;;;;11.73;7.32;;;;;;;7.75;100.00;-18236.75;5024535;28;20046;-79
2023/05/01 03:54:56;;;;;;;11.43;6.90;;;;;;;7.65;100.00;-18234.13;5004526;28;20052;-79
2023/05/01 03:57:22;;;;;;;11.48;7.40;;;;;;;7.60;100.00;-18232.63;5002797;28;20042;-79
2023/05/01 03:59:48;;;;;;;11.50;7.32;;;;;;;7.57;100.00;-18231.78;5009069;28;20053;-79
2023/05/01 04:02:13;;;;;;;14.32;8.23;;;;;;;7.52;100.00;-18230.41;5007555;28;20108;-79
2023/05/01 04:04:39;;;;;;;12.10;7.28;;;;;;;7.56;100.00;-18231.53;5027032;28;20062;-80
2023/05/01 04:07:04;;;;;;;13.48;7.45;;;;;;;7.46;100.00;-18229.03;5010392;28;20473;-79
2023/05/01 04:09:30;;;;;;;13.85;7.72;;;;;;;7.44;100.00;-18228.50;5013774;28;20517;-79
2023/05/01 04:11:55;;;;;;;12.05;7.35;;;;;;;7.46;100.00;-18229.03;5006236;28;20037;-79
2023/05/01 04:14:20;;;;;;;10.73;7.18;;;;;;;7.44;100.00;-18228.50;5000637;28;20129;-79
2023/05/01 04:16:46;;;;;;;15.23;7.88;;;;;;;7.41;100.00;-18227.66;5005714;28;20144;-79
2023/05/01 04:19:12;;;;;;;10.30;7.13;;;;;;;7.42;100.00;-18227.94;5012312;28;20034;-79
2023/05/01 04:21:37;;;;;;;10.15;7.07;;;;;;;7.42;100.00;-18227.94;5009258;28;20049;-79
2023/05/01 04:24:03;;;;;;;13.35;7.57;;;;;;;7.39;100.00;-18226.97;5007874;28;20061;-80
2023/05/01 04:26:29;;;;;;;15.10;8.43;;;;;;;7.38;100.00;-18226.69;5009093;28;20484;-79
2023/05/01 04:28:54;;;;;;;13.20;7.25;;;;;;;7.35;100.00;-18226.00;5009029;28;20037;-79
2023/05/01 04:31:19;;;;;;;15.25;7.97;;;;;;;7.36;100.00;-18226.28;5012043;28;20074;-79
2023/05/01 04:33:45;;;;;;;12.50;7.95;;;;;;;7.37;100.00;-18226.44;5003962;28;20546;-79
2023/05/01 04:36:11;;;;;;;12.25;7.75;;;;;;;7.37;100.00;-18226.44;5003678;28;20089;-80
2023/05/01 04:38:36;;;;;;;12.38;7.43;;;;;;;7.44;100.00;-18228.34;5003967;28;20042;-79
2023/05/01 04:41:03;;;;;;;13.57;7.80;;;;;;;7.46;100.00;-18228.91;5007463;28;20045;-79
2023/05/01 04:43:28;;;;;;;13.77;7.38;;;;;;;7.46;100.00;-18229.03;5005343;28;20072;-79
2023/05/01 04:45:54;;;;;;;13.52;7.88;;;;;;;7.46;100.00;-18229.03;5008176;28;20734;-79
2023/05/01 04:48:19;;;;;;;15.45;8.85;;;;;;;7.41;100.00;-18227.53;5010235;28;20528;-79
2023/05/01 04:50:45;;;;;;;11.50;7.63;;;;;;;7.51;100.00;-18230.13;5004024;28;20054;-79
2023/05/01 04:53:10;;;;;;;14.88;7.65;;;;;;;7.57;100.00;-18231.78;5003581;28;20037;-79
2023/05/01 04:55:35;;;;;;;11.95;8.10;;;;;;;7.63;100.00;-18233.44;5005882;28;20049;-79
2023/05/01 04:58:03;;;;;;;14.00;8.23;;;;;;;7.57;100.00;-18231.94;5005266;28;20046;-79
2023/05/01 05:00:29;;;;;;;14.43;7.55;;;;;;;7.64;100.00;-18233.72;5007632;28;20116;-79
2023/05/01 05:02:55;;;;;;;14.98;9.07;;;;;;;7.67;100.00;-18234.56;5012470;28;20045;-79
2023/05/01 05:05:20;;;;;;;16.88;8.77;;;;;;;7.70;100.00;-18235.38;5008109;28;20050;-79
2023/05/01 05:07:46;;;;;;;13.10;7.80;;;;;;;7.82;100.00;-18238.53;5004638;28;20052;-79
2023/05/01 05:10:11;;;;;;;12.48;7.55;;;;;;;7.84;100.00;-18239.22;5006273;28;20045;-79
2023/05/01 05:12:36;;;;;;;13.40;7.88;;;;;;;7.86;100.00;-18239.78;5015330;28;20061;-79
2023/05/01 05:15:02;;;;;;;12.38;8.18;;;;;;;7.93;100.00;-18241.56;5005804;28;20858;-79
2023/05/01 05:17:27;;;;;;;12.77;7.95;;;;;;;8.05;100.00;-18244.88;5024507;28;20502;-79
2023/05/01 05:19:52;;;;;;;11.07;7.38;;;;;;;8.15;100.00;-18247.50;5004518;28;20157;-79
2023/05/01 05:22:18;;;;;;;12.77;7.38;;;;;;;8.27;100.00;-18250.78;5006396;28;20193;-79
2023/05/01 05:24:44;;;;;;;14.02;7.60;;;;;;;8.34;100.00;-18252.59;5009259;28;20045;-79
2023/05/01 05:27:09;;;;;;;15.13;8.25;;;;;;;8.39;100.00;-18253.84;5019264;28;20048;-79
2023/05/01 05:29:35;;;;;;;11.88;7.03;;;;;;;8.43;100.00;-18254.94;5008583;28;20037;-79
2023/05/01 05:32:01;;;;;;;13.73;7.43;;;;;;;8.52;100.00;-18257.41;5009441;28;20046;-79
2023/05/01 05:34:26;;;;;;;13.32;7.40;;;;;;;8.67;100.00;-18261.41;5003407;28;20038;-80
2023/05/01 05:36:51;;;;;;;12.70;7.85;;;;;;;8.71;100.00;-18262.63;5001552;28;20150;-79
2023/05/01 05:39:17;;;;;;;9.70;7.20;;;;;;;8.78;100.00;-18264.56;5003348;28;20042;-79
2023/05/01 05:41:42;;;;;;;12.02;7.18;;;;;;;8.91;100.00;-18267.88;5003200;28;20475;-79
2023/05/01 05:44:07;;;;;;;9.38;7.13;;;;;;;8.99;100.00;-18270.06;5008452;28;20133;-80
2023/05/01 05:46:33;;;;;;;13.75;7.72;;;;;;;8.99;100.00;-18270.06;5011276;28;20088;-79
2023/05/01 05:48:58;;;;;;;14.90;7.10;;;;;;;9.09;100.00;-18272.81;5002544;28;20073;-79
2023/05/01 05:51:23;;;;;;;10.38;7.00;;;;;;;9.25;100.00;-18277.22;5000140;28;20061;-79
2023/05/01 05:53:49;;;;;;;12.63;7.07;;;;;;;9.37;100.00;-18280.38;5001695;28;20042;-79
2023/05/01 05:56:14;;;;;;;11.32;6.88;;;;;;;9.49;100.00;-18283.69;5007754;28;20096;-79
2023/05/01 05:58:39;;;;;;;11.30;7.07;;;;;;;9.62;100.00;-18287.00;5006121;28;20067;-79
2023/05/01 06:01:05;;;;;;;11.52;6.55;;;;;;;9.66;100.00;-18288.22;5011914;28;20079;-79
2023/05/01 06:03:31;;;;;;;9.55;6.15;;;;;;;9.73;100.00;-18289.88;5009003;28;20057;-80
2023/05/01 06:05:56;;;;;;;11.25;6.18;;;;;;;9.89;100.00;-18294.41;5006508;28;20037;-80
2023/05/01 06:08:22;;;;;;;10.52;6.60;;;;;;;10.04;100.00;-18298.25;5008772;28;20053;-80
2023/05/01 06:10:47;;;;;;;11.75;6.30;;;;;;;10.16;100.00;-18301.56;5010880;28;20160;-80
2023/05/01 06:13:13;;;;;;;10.80;6.45;;;;;;;10.19;100.00;-18302.38;5006243;28;20046;-80
2023/05/01 06:15:39;;;;;;;8.60;5.28;;;;;;;10.26;100.00;-18304.31;5004167;28;20097;-80
2023/05/01 06:18:05;;;;;;;11.32;6.72;;;;;;;10.43;100.00;-18308.72;5010264;28;20026;-80
2023/05/01 06:20:31;;;;;;;10.75;6.70;;;;;;;10.50;100.00;-18310.78;5004943;28;20039;-80
2023/05/01 06:22:56;;;;;;;11.40;5.53;;;;;;;10.72;100.00;-18316.53;5007623;28;20041;-79
2023/05/01 06:25:25;;;;;;;9.55;5.50;;;;;;;10.78;100.00;-18318.31;5011416;28;20318;-79
2023/05/01 06:27:50;;;;;;;8.60;5.20;;;;;;;10.87;100.00;-18320.66;5003419;28;20069;-80
2023/05/01 06:30:18;;;;;;;10.07;4.93;;;;;;;10.94;100.00;-18322.59;5009859;28;20042;-79
2023/05/01 06:32:47;;;;;;;8.80;5.25;;;;;;;11.05;100.00;-18325.47;5007152;28;20041;-79
2023/05/01 06:35:12;;;;;;;9.65;4.95;;;;;;;11.13;100.00;-18327.53;5009474;28;20103;-80
2023/05/01 06:37:38;;;;;;;12.00;4.97;;;;;;;11.20;100.00;-18329.47;5006856;28;20065;-80
2023/05/01 06:40:08;;;;;;;9.20;4.30;;;;;;;11.26;100.00;-18331.25;5005689;28;20428;-80
2023/05/01 06:42:34;;;;;;;6.90;3.88;;;;;;;11.39;100.00;-18334.66;5002622;28;20548;-79
2023/05/01 06:44:59;;;;;;;7.68;4.30;;;;;;;11.52;100.00;-18338.09;5008873;28;20041;-80
2023/05/01 06:47:25;;;;;;;7.82;4.28;;;;;;;11.56;100.00;-18339.06;5003836;28;20048;-79
2023/05/01 06:49:50;;;;;;;9.15;4.43;;;;;;;11.66;100.00;-18341.94;5008869;28;20042;-79
2023/05/01 06:52:16;;;;;;;7.88;4.53;;;;;;;11.74;100.00;-18344.16;5009300;28;20101;-80
2023/05/01 06:54:41;;;;;;;6.70;4.22;;;;;;;11.75;100.00;-18344.28;5007522;28;20038;-80
2023/05/01 06:57:06;;;;;;;7.68;4.13;;;;;;;11.82;100.00;-18346.19;5012923;28;20049;-80
2023/05/01 06:59:32;;;;;;;8.43;4.50;;;;;;;11.84;100.00;-18346.63;5012396;28;20049;-80
2023/05/01 07:01:57;;;;;;;7.57;4.10;;;;;;;11.87;100.00;-18347.44;5027613;28;20531;-80
2023/05/01 07:04:22;;;;;;;7.15;4.40;;;;;;;11.91;100.00;-18348.69;5009871;28;20044;-80
2023/05/01 07:06:51;;;;;;;10.23;4.05;;;;;;;11.89;100.00;-18348.00;5008608;28;20105;-81
2023/05/01 07:09:16;;;;;;;7.27;4.37;;;;;;;12.01;100.00;-18351.16;5010919;28;20687;-81
2023/05/01 07:11:41;;;;;;;9.45;4.30;;;;;;;12.11;100.00;-18354.03;5005359;28;20146;-80
2023/05/01 07:14:07;;;;;;;6.47;4.13;;;;;;;12.15;100.00;-18355.00;5005882;28;20532;-80
2023/05/01 07:16:33;;;;;;;5.68;4.05;;;;;;;12.27;100.00;-18358.28;5001608;28;20052;-80
2023/05/01 07:18:58;;;;;;;10.32;4.30;;;;;;;12.33;100.00;-18359.94;5012798;28;20505;-80
2023/05/01 07:21:24;;;;;;;7.05;3.92;;;;;;;12.51;100.00;-18364.59;5004872;28;20497;-80
2023/05/01 07:23:49;;;;;;;8.70;4.07;;;;;;;12.75;100.00;-18371.19;5012773;28;20129;-80
2023/05/01 07:26:15;;;;;;;5.95;3.65;;;;;;;12.95;100.00;-18376.53;5020587;28;20038;-81
2023/05/01 07:28:40;;;;;;;7.47;3.67;;;;;;;13.04;100.00;-18378.84;5010651;28;20042;-81
2023/05/01 07:31:08;;;;;;;6.57;4.20;;;;;;;13.19;100.00;-18382.97;5028289;28;20044;-80
2023/05/01 07:33:33;;;;;;;8.77;4.30;;;;;;;13.21;100.00;-18383.50;5011145;28;20415;-81
2023/05/01 07:35:59;;;;;;;7.00;3.85;;;;;;;13.27;100.00;-18385.03;5025994;28;20048;-80
2023/05/01 07:38:25;;;;;;;9.02;4.35;;;;;;;13.31;100.00;-18386.13;5011384;28;20088;-80
2023/05/01 07:40:53;;;;;;;10.13;3.88;;;;;;;13.41;100.00;-18388.72;5012405;28;20112;-80
2023/05/01 07:43:18;;;;;;;9.27;3.92;;;;;;;13.36;100.00;-18387.50;5005298;28;20035;-80
2023/05/01 07:45:57;;;;;;;7.85;3.63;;;;;;;13.39;100.00;-18388.19;5010666;28;20050;-80
2023/05/01 07:48:23;;;;;;;11.07;4.25;;;;;;;13.43;100.00;-18389.41;5003481;28;20070;-80
2023/05/01 07:50:49;;;;;;;6.53;3.80;;;;;;;13.53;100.00;-18392.00;5014182;28;20533;-81
2023/05/01 07:53:15;;;;;;;7.57;3.92;;;;;;;13.66;100.00;-18395.56;5007490;28;20050;-80
2023/05/01 07:55:40;;;;;;;5.88;4.00;;;;;;;13.65;100.00;-18395.31;5012601;28;20076;-81
2023/05/01 07:58:06;;;;;;;6.00;4.07;;;;;;;13.72;100.00;-18397.22;5009452;28;20038;-82
2023/05/01 08:00:31;;;;;;;7.20;4.30;;;;;;;13.77;100.00;-18398.59;5022299;28;20040;-81
2023/05/01 08:02:57;;;;;;;7.90;3.78;;;;;;;13.75;100.00;-18397.91;5010208;28;20041;-81
2023/05/01 08:05:22;;;;;;;9.80;4.03;;;;;;;13.86;100.00;-18400.78;5010207;28;20038;-81
2023/05/01 08:07:47;;;;;;;8.25;4.13;;;;;;;13.75;100.00;-18398.03;5009046;28;20042;-81
2023/05/01 08:10:13;;;;;;;8.93;4.45;;;;;;;13.82;100.00;-18399.69;5009031;28;20137;-81
2023/05/01 08:12:39;;;;;;;8.27;4.07;;;;;;;13.89;100.00;-18401.59;5003814;28;20054;-81
2023/05/01 08:15:05;;;;;;;6.55;4.35;;;;;;;13.98;100.00;-18404.22;5009588;28;20049;-81
2023/05/01 08:17:31;;;;;;;8.30;4.70;;;;;;;13.91;100.00;-18402.28;5009836;28;20041;-81
2023/05/01 08:19:56;;;;;;;7.10;4.80;;;;;;;13.96;100.00;-18403.53;5009660;28;20040;-80
2023/05/01 08:22:22;;;;;;;10.45;4.50;;;;;;;14.17;100.00;-18409.28;5025347;28;20069;-79
2023/05/01 08:24:49;;;;;;;9.20;4.47;;;;;;;14.32;100.00;-18413.25;5023741;28;20046;-80
2023/05/01 08:27:14;;;;;;;6.72;4.40;;;;;;;14.43;100.00;-18416.25;5008332;28;20041;-80
2023/05/01 08:29:39;;;;;;;6.38;4.13;;;;;;;14.47;100.00;-18417.22;5003964;28;20045;-80
2023/05/01 08:32:05;;;;;;;8.20;4.00;;;;;;;14.51;100.00;-18418.16;5009766;28;20096;-81
2023/05/01 08:34:30;;;;;;;9.13;4.20;;;;;;;14.57;100.00;-18419.81;5008697;28;20029;-80
2023/05/01 08:36:56;;;;;;;8.15;4.60;;;;;;;14.58;100.00;-18420.22;5012873;28;20119;-81
2023/05/01 08:39:21;;;;;;;8.55;4.47;;;;;;;14.60;100.00;-18420.78;5010893;28;20085;-80
2023/05/01 08:41:47;;;;;;;7.75;4.72;;;;;;;14.55;100.00;-18419.28;5011828;28;20041;-80
2023/05/01 08:44:16;;;;;;;10.45;4.75;;;;;;;14.56;100.00;-18419.69;5011569;28;20029;-81
2023/05/01 08:46:56;;;;;;;7.10;4.22;;;;;;;14.55;100.00;-18419.41;5011687;28;20042;-81
2023/05/01 08:49:23;;;;;;;8.30;4.28;;;;;;;14.66;100.00;-18422.28;5007517;28;20044;-81
2023/05/01 08:51:51;;;;;;;6.90;4.65;;;;;;;14.54;100.00;-18419.00;5009728;28;20046;-82
2023/05/01 08:54:19;;;;;;;6.67;4.00;;;;;;;14.46;100.00;-18416.94;5010229;28;20092;-80
2023/05/01 08:56:46;;;;;;;11.00;5.20;;;;;;;14.63;100.00;-18421.59;5013428;28;20038;-80
2023/05/01 08:59:13;;;;;;;8.13;5.18;;;;;;;14.71;100.00;-18423.50;5011242;28;20057;-80
2023/05/01 09:01:40;;;;;;;7.55;4.78;;;;;;;14.78;100.00;-18425.56;5005617;28;20038;-81
2023/05/01 09:04:07;;;;;;;9.43;5.22;;;;;;;15.00;100.00;-18431.31;5025022;28;20033;-81
2023/05/01 09:06:33;;;;;;;8.73;5.05;;;;;;;15.03;100.00;-18432.28;5030029;28;20105;-81
2023/05/01 09:08:58;;;;;;;10.00;5.65;;;;;;;15.06;100.00;-18433.09;5014952;28;20076;-81
2023/05/01 09:11:25;;;;;;;8.88;5.13;;;;;;;15.16;100.00;-18435.69;5014125;28;20042;-81
2023/05/01 09:13:51;;;;;;;8.48;4.18;;;;;;;15.36;100.00;-18441.03;5016346;28;20034;-81
2023/05/01 09:16:17;;;;;;;10.52;5.30;;;;;;;15.42;100.00;-18442.66;5017366;28;20041;-81
2023/05/01 09:18:44;;;;;;;9.73;5.07;;;;;;;15.51;100.00;-18445.00;5013807;28;20358;-81
2023/05/01 09:21:09;;;;;;;8.75;5.10;;;;;;;15.57;100.00;-18446.78;5016278;28;20046;-81
2023/05/01 09:23:36;;;;;;;7.60;4.45;;;;;;;15.62;100.00;-18447.88;5017758;28;20034;-81
2023/05/01 09:26:05;;;;;;;8.18;4.93;;;;;;;15.68;100.00;-18449.50;5017855;28;20186;-81
2023/05/01 09:28:44;;;;;;;7.60;5.03;;;;;;;15.78;100.00;-18452.25;5025438;28;20049;-81
2023/05/01 09:31:28;;;;;;;;;;;;;;;16.05;100.00;-18459.50;5023387;28;20080;-81
2023/05/01 09:33:57;;;;;;;11.10;6.63;;;;;;;16.26;100.00;-18465.09;4999206;28;19913;-81
2023/05/01 09:36:31;;;;;;;7.47;4.57;;;;;;;16.22;100.00;-18464.13;5017084;28;20049;-81
2023/05/01 09:38:58;;;;;;;8.07;4.35;;;;;;;16.22;100.00;-18464.00;5017730;28;20030;-81
2023/05/01 09:41:24;;;;;;;7.63;5.45;;;;;;;16.37;100.00;-18468.09;5016387;28;20030;-81
2023/05/01 09:43:55;;;;;;;8.38;4.55;;;;;;;16.48;100.00;-18470.97;5016483;28;20042;-81
2023/05/01 09:46:23;;;;;;;7.07;4.85;;;;;;;16.69;100.00;-18476.72;5013447;28;20460;-81
2023/05/01 09:48:59;;;;;;;6.93;4.35;;;;;;;16.74;100.00;-18477.94;5009858;28;20029;-81
2023/05/01 09:51:25;;;;;;;8.60;4.90;;;;;;;16.87;100.00;-18481.50;5009786;28;20065;-81
2023/05/01 09:53:52;;;;;;;7.57;4.10;;;;;;;16.97;100.00;-18484.09;5014933;28;20042;-81
2023/05/01 09:56:19;;;;;;;7.07;4.47;;;;;;;17.12;100.00;-18488.19;5011977;28;20041;-81
2023/05/01 09:58:45;;;;;;;8.85;4.75;;;;;;;17.04;100.00;-18485.88;5013620;28;20072;-81
2023/05/01 10:01:10;;;;;;;7.75;4.10;;;;;;;17.25;100.00;-18491.59;5013586;28;20044;-82
2023/05/01 10:03:36;;;;;;;7.40;3.90;;;;;;;17.30;100.00;-18492.81;5019632;28;20046;-82
2023/05/01 10:06:03;;;;;;;8.50;4.40;;;;;;;17.42;95.22;-18495.97;5018270;28;20031;-82
2023/05/01 10:08:48;;;;;;;6.70;4.50;;;;;;;17.53;97.75;-18498.97;5014172;28;20038;-82
2023/05/01 10:11:14;;;;;;;6.53;4.22;;;;;;;17.58;100.00;-18500.34;5018127;28;20089;-82
2023/05/01 10:13:39;;;;;;;7.57;4.25;;;;;;;17.84;100.00;-18507.16;5015095;28;20042;-82
2023/05/01 10:16:07;;;;;;;7.15;4.55;;;;;;;17.84;100.00;-18507.16;5017786;28;20109;-83
2023/05/01 10:18:36;;;;;;;7.90;4.85;;;;;;;17.91;100.00;-18509.06;5013444;28;20033;-82
2023/05/01 10:21:02;;;;;;;;;;;;;;;18.25;100.00;-18518.22;5013879;28;20046;-82
2023/05/01 10:23:28;;;;;;;8.98;4.47;;;;;;;18.18;100.00;-18516.44;5026635;28;20015;-83
2023/05/01 10:25:55;;;;;;;9.00;4.60;;;;;;;18.16;100.00;-18515.91;5015634;28;20069;-82
2023/05/01 10:28:20;;;;;;;8.88;4.57;;;;;;;18.03;96.35;-18512.34;5011989;28;20493;-82
2023/05/01 10:30:48;;;;;;;6.70;4.88;;;;;;;18.14;100.00;-18515.34;5016151;28;20050;-83
2023/05/01 10:33:13;;;;;;;9.40;4.38;;;;;;;18.38;99.98;-18521.75;5016795;28;20180;-82
2023/05/01 10:35:43;;;;;;;8.75;4.70;;;;;;;18.43;98.36;-18522.97;5015775;28;20490;-83
2023/05/01 10:38:18;;;;;;;8.07;5.13;;;;;;;18.57;100.00;-18526.81;5016123;28;20048;-83
2023/05/01 10:40:50;;;;;;;7.65;5.15;;;;;;;18.71;96.41;-18530.63;5023620;28;20058;-83
2023/05/01 10:43:19;;;;;;;8.15;5.00;;;;;;;18.30;98.19;-18519.56;5021620;28;20065;-83
2023/05/01 10:45:46;;;;;;;8.93;4.90;;;;;;;18.38;98.68;-18521.63;5042150;23;20080;-82
2023/05/01 10:48:32;;;;;;;7.25;5.05;;;;;;;18.60;100.00;-18527.63;5018011;28;20530;-82
2023/05/01 10:51:19;;;;;;;7.15;4.85;;;;;;;18.43;96.90;-18522.97;5009427;28;20049;-82
2023/05/01 10:53:45;;;;;;;7.63;4.80;;;;;;;18.46;100.00;-18523.81;5017731;28;20044;-82
2023/05/01 10:56:37;;;;;;;7.28;5.35;;;;;;;18.57;100.00;-18526.66;5017806;28;20030;-82
2023/05/01 10:59:06;;;;;;;9.15;5.53;;;;;;;18.50;98.91;-18524.91;4977755;28;20129;-82
2023/05/01 11:01:35;;;;;;;;;;;;;;;18.37;97.30;-18521.34;5014197;28;20034;-82
2023/05/01 11:04:03;;;;;;;;;;;;;;;18.42;100.00;-18522.72;5002618;28;19926;-82
2023/05/01 11:06:29;;;;;;;;;;;;;;;18.44;100.00;-18523.41;5006212;28;19972;-83
2023/05/01 11:08:56;;;;;;;;;;;;;;;18.64;99.95;-18528.56;5006498;28;19928;-82
2023/05/01 11:11:21;;;;;;;;;;;;;;;18.75;100.00;-18531.44;5003141;28;20336;-82
2023/05/01 11:14:07;;;;;;;;;;;;;;;18.82;100.00;-18533.34;5007013;28;19928;-83
2023/05/01 11:16:32;;;;;;;;;;;;;;;18.72;100.00;-18530.75;5005434;28;20340;-83
2023/05/01 11:18:57;;;;;;;;;;;;;;;19.03;100.00;-18538.94;5003899;28;19925;-83
2023/05/01 11:21:28;;;;;;;;;;;;;;;18.99;93.82;-18537.84;5008420;28;19917;-82